sensor_id;sensor_type;location;lat;lon;timestamp;P1;durP1;ratioP1;P2;durP2;ratioP2
67372;SDS011;54257;54.496;18.412;2022-09-03T00:00:01;2.00;;;1.30;;
67372;SDS011;54257;54.496;18.412;2022-09-03T00:05:48;3.50;;;1.10;;
67372;SDS011;54257;54.496;18.412;2022-09-03T00:08:39;1.90;;;1.10;;
67372;SDS011;54257;54.496;18.412;2022-09-03T00:11:21;1.60;;;1.10;;
67372;SDS011;54257;54.496;18.412;2022-09-03T00:14:03;1.70;;;1.50;;
67372;SDS011;54257;54.496;18.412;2022-09-03T00:16:47;1.70;;;1.20;;
67372;SDS011;54257;54.496;18.412;2022-09-03T00:19:19;2.70;;;1.10;;
67372;SDS011;54257;54.496;18.412;2022-09-03T00:21:56;1.60;;;1.20;;
67372;SDS011;54257;54.496;18.412;2022-09-03T00:24:28;1.70;;;1.20;;
67372;SDS011;54257;54.496;18.412;2022-09-03T00:27:02;1.00;;;1.00;;
67372;SDS011;54257;54.496;18.412;2022-09-03T00:29:38;2.60;;;0.90;;
67372;SDS011;54257;54.496;18.412;2022-09-03T00:32:18;3.10;;;1.00;;
67372;SDS011;54257;54.496;18.412;2022-09-03T00:34:54;2.30;;;1.20;;
67372;SDS011;54257;54.496;18.412;2022-09-03T00:37:26;1.40;;;0.90;;
67372;SDS011;54257;54.496;18.412;2022-09-03T00:39:55;1.20;;;1.00;;
67372;SDS011;54257;54.496;18.412;2022-09-03T00:52:57;1.20;;;1.10;;
67372;SDS011;54257;54.496;18.412;2022-09-03T00:59:08;1.70;;;1.40;;
67372;SDS011;54257;54.496;18.412;2022-09-03T01:01:23;1.80;;;1.60;;
67372;SDS011;54257;54.496;18.412;2022-09-03T01:17:14;0.90;;;0.70;;
67372;SDS011;54257;54.496;18.412;2022-09-03T01:20:07;0.40;;;0.40;;
67372;SDS011;54257;54.496;18.412;2022-09-03T01:36:53;0.40;;;0.20;;
67372;SDS011;54257;54.496;18.412;2022-09-03T01:42:48;0.60;;;0.60;;
67372;SDS011;54257;54.496;18.412;2022-09-03T01:45:46;1.70;;;0.70;;
67372;SDS011;54257;54.496;18.412;2022-09-03T01:48:36;0.60;;;0.60;;
67372;SDS011;54257;54.496;18.412;2022-09-03T01:51:26;0.70;;;0.70;;
67372;SDS011;54257;54.496;18.412;2022-09-03T01:59:40;1.30;;;0.50;;
67372;SDS011;54257;54.496;18.412;2022-09-03T02:02:16;0.70;;;0.70;;
67372;SDS011;54257;54.496;18.412;2022-09-03T02:07:36;1.10;;;0.70;;
67372;SDS011;54257;54.496;18.412;2022-09-03T02:10:07;0.40;;;0.40;;
67372;SDS011;54257;54.496;18.412;2022-09-03T02:12:38;0.60;;;0.40;;
67372;SDS011;54257;54.496;18.412;2022-09-03T02:15:11;0.50;;;0.40;;
67372;SDS011;54257;54.496;18.412;2022-09-03T02:17:41;0.60;;;0.50;;
67372;SDS011;54257;54.496;18.412;2022-09-03T02:20:21;0.90;;;0.60;;
67372;SDS011;54257;54.496;18.412;2022-09-03T02:22:51;1.40;;;0.50;;
67372;SDS011;54257;54.496;18.412;2022-09-03T02:25:22;1.30;;;0.60;;
67372;SDS011;54257;54.496;18.412;2022-09-03T02:27:55;1.60;;;0.60;;
67372;SDS011;54257;54.496;18.412;2022-09-03T02:30:23;0.30;;;0.30;;
67372;SDS011;54257;54.496;18.412;2022-09-03T02:32:50;0.80;;;0.40;;
67372;SDS011;54257;54.496;18.412;2022-09-03T02:35:17;1.50;;;0.60;;
67372;SDS011;54257;54.496;18.412;2022-09-03T02:37:46;0.60;;;0.50;;
67372;SDS011;54257;54.496;18.412;2022-09-03T02:40:12;1.60;;;0.60;;
67372;SDS011;54257;54.496;18.412;2022-09-03T02:42:39;3.30;;;0.70;;
67372;SDS011;54257;54.496;18.412;2022-09-03T02:47:39;0.60;;;0.60;;
67372;SDS011;54257;54.496;18.412;2022-09-03T02:50:10;0.70;;;0.40;;
67372;SDS011;54257;54.496;18.412;2022-09-03T02:52:38;1.60;;;0.60;;
67372;SDS011;54257;54.496;18.412;2022-09-03T02:55:05;0.50;;;0.50;;
67372;SDS011;54257;54.496;18.412;2022-09-03T02:57:32;2.60;;;0.70;;
67372;SDS011;54257;54.496;18.412;2022-09-03T02:59:59;0.60;;;0.50;;
67372;SDS011;54257;54.496;18.412;2022-09-03T03:02:26;0.60;;;0.50;;
67372;SDS011;54257;54.496;18.412;2022-09-03T03:04:53;0.70;;;0.60;;
67372;SDS011;54257;54.496;18.412;2022-09-03T03:07:21;0.50;;;0.50;;
67372;SDS011;54257;54.496;18.412;2022-09-03T03:09:47;0.60;;;0.60;;
67372;SDS011;54257;54.496;18.412;2022-09-03T03:12:15;1.30;;;0.70;;
67372;SDS011;54257;54.496;18.412;2022-09-03T03:14:42;1.40;;;0.50;;
67372;SDS011;54257;54.496;18.412;2022-09-03T03:17:09;0.70;;;0.60;;
67372;SDS011;54257;54.496;18.412;2022-09-03T03:19:36;0.50;;;0.50;;
67372;SDS011;54257;54.496;18.412;2022-09-03T03:22:03;1.50;;;0.70;;
67372;SDS011;54257;54.496;18.412;2022-09-03T03:24:30;0.90;;;0.60;;
67372;SDS011;54257;54.496;18.412;2022-09-03T03:26:57;3.00;;;0.60;;
67372;SDS011;54257;54.496;18.412;2022-09-03T03:29:24;0.50;;;0.50;;
67372;SDS011;54257;54.496;18.412;2022-09-03T03:31:52;0.70;;;0.60;;
67372;SDS011;54257;54.496;18.412;2022-09-03T03:34:19;0.60;;;0.60;;
67372;SDS011;54257;54.496;18.412;2022-09-03T03:36:47;0.60;;;0.60;;
67372;SDS011;54257;54.496;18.412;2022-09-03T03:39:14;0.40;;;0.40;;
67372;SDS011;54257;54.496;18.412;2022-09-03T03:41:41;0.70;;;0.60;;
67372;SDS011;54257;54.496;18.412;2022-09-03T03:44:09;2.00;;;0.70;;
67372;SDS011;54257;54.496;18.412;2022-09-03T03:46:36;2.10;;;0.60;;
67372;SDS011;54257;54.496;18.412;2022-09-03T03:49:06;0.90;;;0.70;;
67372;SDS011;54257;54.496;18.412;2022-09-03T03:51:34;1.50;;;1.00;;
67372;SDS011;54257;54.496;18.412;2022-09-03T03:54:02;2.00;;;0.80;;
67372;SDS011;54257;54.496;18.412;2022-09-03T03:56:30;0.90;;;0.70;;
67372;SDS011;54257;54.496;18.412;2022-09-03T03:58:57;0.50;;;0.50;;
67372;SDS011;54257;54.496;18.412;2022-09-03T04:01:25;0.70;;;0.60;;
67372;SDS011;54257;54.496;18.412;2022-09-03T04:03:54;2.20;;;0.70;;
67372;SDS011;54257;54.496;18.412;2022-09-03T04:06:22;0.50;;;0.50;;
67372;SDS011;54257;54.496;18.412;2022-09-03T04:08:51;1.50;;;0.50;;
67372;SDS011;54257;54.496;18.412;2022-09-03T04:11:19;1.30;;;0.50;;
67372;SDS011;54257;54.496;18.412;2022-09-03T04:13:48;0.60;;;0.50;;
67372;SDS011;54257;54.496;18.412;2022-09-03T04:16:20;0.60;;;0.50;;
67372;SDS011;54257;54.496;18.412;2022-09-03T04:18:49;0.90;;;0.90;;
67372;SDS011;54257;54.496;18.412;2022-09-03T04:21:18;1.60;;;0.90;;
67372;SDS011;54257;54.496;18.412;2022-09-03T04:23:47;0.70;;;0.60;;
67372;SDS011;54257;54.496;18.412;2022-09-03T04:26:17;1.80;;;0.80;;
67372;SDS011;54257;54.496;18.412;2022-09-03T04:28:48;2.10;;;0.60;;
67372;SDS011;54257;54.496;18.412;2022-09-03T04:31:16;1.90;;;0.70;;
67372;SDS011;54257;54.496;18.412;2022-09-03T04:33:45;0.60;;;0.50;;
67372;SDS011;54257;54.496;18.412;2022-09-03T04:36:13;6.60;;;1.30;;
67372;SDS011;54257;54.496;18.412;2022-09-03T04:38:49;2.70;;;0.70;;
67372;SDS011;54257;54.496;18.412;2022-09-03T04:41:20;4.80;;;1.10;;
67372;SDS011;54257;54.496;18.412;2022-09-03T04:43:53;2.90;;;0.70;;
67372;SDS011;54257;54.496;18.412;2022-09-03T04:46:23;1.50;;;0.60;;
67372;SDS011;54257;54.496;18.412;2022-09-03T04:48:53;3.10;;;0.80;;
67372;SDS011;54257;54.496;18.412;2022-09-03T04:51:21;2.40;;;0.70;;
67372;SDS011;54257;54.496;18.412;2022-09-03T04:53:54;1.40;;;1.00;;
67372;SDS011;54257;54.496;18.412;2022-09-03T04:56:25;2.80;;;0.80;;
67372;SDS011;54257;54.496;18.412;2022-09-03T04:58:54;5.60;;;1.20;;
67372;SDS011;54257;54.496;18.412;2022-09-03T05:01:24;1.70;;;0.80;;
67372;SDS011;54257;54.496;18.412;2022-09-03T05:03:55;1.60;;;1.00;;
67372;SDS011;54257;54.496;18.412;2022-09-03T05:06:23;1.80;;;0.70;;
67372;SDS011;54257;54.496;18.412;2022-09-03T05:08:52;0.80;;;0.70;;
67372;SDS011;54257;54.496;18.412;2022-09-03T05:11:21;0.80;;;0.70;;
67372;SDS011;54257;54.496;18.412;2022-09-03T05:13:50;1.20;;;0.90;;
67372;SDS011;54257;54.496;18.412;2022-09-03T05:16:19;1.40;;;1.00;;
67372;SDS011;54257;54.496;18.412;2022-09-03T05:18:47;1.10;;;0.70;;
67372;SDS011;54257;54.496;18.412;2022-09-03T05:21:18;1.70;;;1.00;;
67372;SDS011;54257;54.496;18.412;2022-09-03T05:23:46;1.70;;;0.90;;
67372;SDS011;54257;54.496;18.412;2022-09-03T05:26:20;1.70;;;0.80;;
67372;SDS011;54257;54.496;18.412;2022-09-03T05:28:53;1.00;;;0.90;;
67372;SDS011;54257;54.496;18.412;2022-09-03T05:31:22;1.30;;;1.00;;
67372;SDS011;54257;54.496;18.412;2022-09-03T05:33:52;2.20;;;1.10;;
67372;SDS011;54257;54.496;18.412;2022-09-03T05:36:21;1.50;;;1.20;;
67372;SDS011;54257;54.496;18.412;2022-09-03T05:38:50;2.10;;;1.20;;
67372;SDS011;54257;54.496;18.412;2022-09-03T05:41:21;1.80;;;1.40;;
67372;SDS011;54257;54.496;18.412;2022-09-03T05:43:49;4.70;;;1.40;;
67372;SDS011;54257;54.496;18.412;2022-09-03T05:46:22;2.10;;;0.90;;
67372;SDS011;54257;54.496;18.412;2022-09-03T05:48:57;1.10;;;1.00;;
67372;SDS011;54257;54.496;18.412;2022-09-03T05:51:25;1.80;;;1.00;;
67372;SDS011;54257;54.496;18.412;2022-09-03T05:53:53;1.50;;;1.10;;
67372;SDS011;54257;54.496;18.412;2022-09-03T05:56:22;1.10;;;0.90;;
67372;SDS011;54257;54.496;18.412;2022-09-03T05:58:52;2.30;;;1.00;;
67372;SDS011;54257;54.496;18.412;2022-09-03T06:01:25;2.20;;;0.90;;
67372;SDS011;54257;54.496;18.412;2022-09-03T06:04:10;3.10;;;0.90;;
67372;SDS011;54257;54.496;18.412;2022-09-03T06:06:42;1.40;;;1.00;;
67372;SDS011;54257;54.496;18.412;2022-09-03T06:09:14;2.50;;;1.00;;
67372;SDS011;54257;54.496;18.412;2022-09-03T06:11:43;1.90;;;1.00;;
67372;SDS011;54257;54.496;18.412;2022-09-03T06:14:12;1.50;;;1.10;;
67372;SDS011;54257;54.496;18.412;2022-09-03T06:16:41;1.20;;;1.10;;
67372;SDS011;54257;54.496;18.412;2022-09-03T06:19:15;1.60;;;1.00;;
67372;SDS011;54257;54.496;18.412;2022-09-03T06:21:45;2.10;;;0.90;;
67372;SDS011;54257;54.496;18.412;2022-09-03T06:24:16;1.10;;;0.80;;
67372;SDS011;54257;54.496;18.412;2022-09-03T06:26:45;1.90;;;0.70;;
67372;SDS011;54257;54.496;18.412;2022-09-03T06:29:12;3.10;;;0.70;;
67372;SDS011;54257;54.496;18.412;2022-09-03T06:31:40;2.00;;;1.10;;
67372;SDS011;54257;54.496;18.412;2022-09-03T06:34:07;1.20;;;1.00;;
67372;SDS011;54257;54.496;18.412;2022-09-03T06:36:34;3.60;;;1.00;;
67372;SDS011;54257;54.496;18.412;2022-09-03T06:39:01;2.00;;;0.90;;
67372;SDS011;54257;54.496;18.412;2022-09-03T06:41:29;2.90;;;1.20;;
67372;SDS011;54257;54.496;18.412;2022-09-03T06:44:03;4.20;;;2.10;;
67372;SDS011;54257;54.496;18.412;2022-09-03T06:46:34;3.00;;;1.50;;
67372;SDS011;54257;54.496;18.412;2022-09-03T06:49:04;3.40;;;1.60;;
67372;SDS011;54257;54.496;18.412;2022-09-03T06:51:31;2.70;;;1.10;;
67372;SDS011;54257;54.496;18.412;2022-09-03T06:53:59;2.90;;;1.70;;
67372;SDS011;54257;54.496;18.412;2022-09-03T06:56:29;2.10;;;1.10;;
67372;SDS011;54257;54.496;18.412;2022-09-03T06:59:02;1.60;;;1.10;;
67372;SDS011;54257;54.496;18.412;2022-09-03T07:01:32;4.00;;;1.30;;
67372;SDS011;54257;54.496;18.412;2022-09-03T07:04:01;2.40;;;1.10;;
67372;SDS011;54257;54.496;18.412;2022-09-03T07:06:31;1.60;;;1.20;;
67372;SDS011;54257;54.496;18.412;2022-09-03T07:09:06;3.40;;;1.10;;
67372;SDS011;54257;54.496;18.412;2022-09-03T07:11:34;1.70;;;1.10;;
67372;SDS011;54257;54.496;18.412;2022-09-03T07:14:03;2.80;;;1.10;;
67372;SDS011;54257;54.496;18.412;2022-09-03T07:16:34;2.60;;;1.20;;
67372;SDS011;54257;54.496;18.412;2022-09-03T07:19:05;1.50;;;1.20;;
67372;SDS011;54257;54.496;18.412;2022-09-03T07:21:34;3.00;;;1.40;;
67372;SDS011;54257;54.496;18.412;2022-09-03T07:24:03;2.40;;;0.90;;
67372;SDS011;54257;54.496;18.412;2022-09-03T07:26:32;2.90;;;1.10;;
67372;SDS011;54257;54.496;18.412;2022-09-03T07:29:01;2.00;;;1.20;;
67372;SDS011;54257;54.496;18.412;2022-09-03T07:31:29;2.20;;;1.10;;
67372;SDS011;54257;54.496;18.412;2022-09-03T07:34:03;1.50;;;1.00;;
67372;SDS011;54257;54.496;18.412;2022-09-03T07:36:37;3.50;;;1.10;;
67372;SDS011;54257;54.496;18.412;2022-09-03T07:39:09;3.80;;;1.30;;
67372;SDS011;54257;54.496;18.412;2022-09-03T07:41:38;1.10;;;0.90;;
67372;SDS011;54257;54.496;18.412;2022-09-03T07:44:08;2.50;;;1.20;;
67372;SDS011;54257;54.496;18.412;2022-09-03T07:46:37;1.70;;;1.00;;
67372;SDS011;54257;54.496;18.412;2022-09-03T07:49:05;2.90;;;1.10;;
67372;SDS011;54257;54.496;18.412;2022-09-03T07:51:33;1.80;;;1.10;;
67372;SDS011;54257;54.496;18.412;2022-09-03T07:54:03;1.00;;;0.90;;
67372;SDS011;54257;54.496;18.412;2022-09-03T07:56:34;2.00;;;1.10;;
67372;SDS011;54257;54.496;18.412;2022-09-03T07:59:02;1.40;;;0.90;;
67372;SDS011;54257;54.496;18.412;2022-09-03T08:01:30;1.10;;;1.00;;
67372;SDS011;54257;54.496;18.412;2022-09-03T08:03:58;2.30;;;1.00;;
67372;SDS011;54257;54.496;18.412;2022-09-03T08:06:26;2.10;;;1.10;;
67372;SDS011;54257;54.496;18.412;2022-09-03T08:08:55;1.70;;;0.90;;
67372;SDS011;54257;54.496;18.412;2022-09-03T08:11:25;0.70;;;0.70;;
67372;SDS011;54257;54.496;18.412;2022-09-03T08:13:55;4.60;;;1.10;;
67372;SDS011;54257;54.496;18.412;2022-09-03T08:16:32;0.80;;;0.80;;
67372;SDS011;54257;54.496;18.412;2022-09-03T08:19:00;0.60;;;0.60;;
67372;SDS011;54257;54.496;18.412;2022-09-03T08:21:28;0.80;;;0.80;;
67372;SDS011;54257;54.496;18.412;2022-09-03T08:23:55;0.60;;;0.60;;
67372;SDS011;54257;54.496;18.412;2022-09-03T08:26:35;1.40;;;0.70;;
67372;SDS011;54257;54.496;18.412;2022-09-03T08:29:04;1.90;;;0.70;;
67372;SDS011;54257;54.496;18.412;2022-09-03T08:31:32;1.50;;;0.80;;
67372;SDS011;54257;54.496;18.412;2022-09-03T08:34:00;1.00;;;0.90;;
67372;SDS011;54257;54.496;18.412;2022-09-03T08:36:35;1.40;;;1.20;;
67372;SDS011;54257;54.496;18.412;2022-09-03T08:39:05;1.10;;;0.90;;
67372;SDS011;54257;54.496;18.412;2022-09-03T08:41:40;1.20;;;0.80;;
67372;SDS011;54257;54.496;18.412;2022-09-03T08:55:30;3.90;;;2.10;;
67372;SDS011;54257;54.496;18.412;2022-09-03T08:58:05;1.00;;;0.80;;
67372;SDS011;54257;54.496;18.412;2022-09-03T09:00:56;0.50;;;0.50;;
67372;SDS011;54257;54.496;18.412;2022-09-03T09:23:12;1.60;;;0.90;;
67372;SDS011;54257;54.496;18.412;2022-09-03T09:25:48;1.90;;;0.80;;
67372;SDS011;54257;54.496;18.412;2022-09-03T09:30:49;0.80;;;0.80;;
67372;SDS011;54257;54.496;18.412;2022-09-03T09:33:19;1.10;;;0.90;;
67372;SDS011;54257;54.496;18.412;2022-09-03T09:35:48;1.20;;;0.50;;
67372;SDS011;54257;54.496;18.412;2022-09-03T09:38:26;0.60;;;0.60;;
67372;SDS011;54257;54.496;18.412;2022-09-03T09:40:55;0.40;;;0.40;;
67372;SDS011;54257;54.496;18.412;2022-09-03T09:43:23;0.60;;;0.60;;
67372;SDS011;54257;54.496;18.412;2022-09-03T09:45:51;0.60;;;0.50;;
67372;SDS011;54257;54.496;18.412;2022-09-03T09:48:25;0.70;;;0.50;;
67372;SDS011;54257;54.496;18.412;2022-09-03T09:53:44;2.50;;;0.60;;
67372;SDS011;54257;54.496;18.412;2022-09-03T09:56:22;0.50;;;0.50;;
67372;SDS011;54257;54.496;18.412;2022-09-03T09:59:07;0.70;;;0.70;;
67372;SDS011;54257;54.496;18.412;2022-09-03T10:01:40;0.70;;;0.70;;
67372;SDS011;54257;54.496;18.412;2022-09-03T10:04:29;1.40;;;0.60;;
67372;SDS011;54257;54.496;18.412;2022-09-03T10:07:21;0.80;;;0.80;;
67372;SDS011;54257;54.496;18.412;2022-09-03T10:09:56;1.10;;;0.60;;
67372;SDS011;54257;54.496;18.412;2022-09-03T10:21:01;1.00;;;0.50;;
67372;SDS011;54257;54.496;18.412;2022-09-03T10:26:13;0.50;;;0.50;;
67372;SDS011;54257;54.496;18.412;2022-09-03T10:28:44;0.80;;;0.60;;
67372;SDS011;54257;54.496;18.412;2022-09-03T10:33:59;0.60;;;0.50;;
67372;SDS011;54257;54.496;18.412;2022-09-03T10:42:45;1.30;;;0.60;;
67372;SDS011;54257;54.496;18.412;2022-09-03T10:45:26;0.60;;;0.60;;
67372;SDS011;54257;54.496;18.412;2022-09-03T10:51:05;0.80;;;0.50;;
67372;SDS011;54257;54.496;18.412;2022-09-03T10:56:14;0.50;;;0.50;;
67372;SDS011;54257;54.496;18.412;2022-09-03T10:58:53;0.50;;;0.50;;
67372;SDS011;54257;54.496;18.412;2022-09-03T11:09:38;0.80;;;0.60;;
67372;SDS011;54257;54.496;18.412;2022-09-03T11:15:01;0.60;;;0.60;;
67372;SDS011;54257;54.496;18.412;2022-09-03T11:17:45;0.40;;;0.40;;
67372;SDS011;54257;54.496;18.412;2022-09-03T11:20:18;0.60;;;0.60;;
67372;SDS011;54257;54.496;18.412;2022-09-03T11:22:47;0.40;;;0.40;;
67372;SDS011;54257;54.496;18.412;2022-09-03T11:25:18;0.80;;;0.50;;
67372;SDS011;54257;54.496;18.412;2022-09-03T11:27:53;1.80;;;0.70;;
67372;SDS011;54257;54.496;18.412;2022-09-03T11:31:04;1.30;;;0.60;;
67372;SDS011;54257;54.496;18.412;2022-09-03T11:33:48;0.70;;;0.50;;
67372;SDS011;54257;54.496;18.412;2022-09-03T11:36:28;1.60;;;0.60;;
67372;SDS011;54257;54.496;18.412;2022-09-03T11:38:58;0.60;;;0.50;;
67372;SDS011;54257;54.496;18.412;2022-09-03T11:41:26;0.70;;;0.70;;
67372;SDS011;54257;54.496;18.412;2022-09-03T11:43:57;1.20;;;0.30;;
67372;SDS011;54257;54.496;18.412;2022-09-03T11:48:51;1.00;;;0.40;;
67372;SDS011;54257;54.496;18.412;2022-09-03T11:53:56;0.50;;;0.40;;
67372;SDS011;54257;54.496;18.412;2022-09-03T11:56:24;1.30;;;0.40;;
67372;SDS011;54257;54.496;18.412;2022-09-03T11:59:00;2.10;;;0.60;;
67372;SDS011;54257;54.496;18.412;2022-09-03T12:04:12;0.70;;;0.50;;
67372;SDS011;54257;54.496;18.412;2022-09-03T12:06:47;0.50;;;0.50;;
67372;SDS011;54257;54.496;18.412;2022-09-03T12:15:22;1.20;;;0.50;;
67372;SDS011;54257;54.496;18.412;2022-09-03T12:18:02;0.60;;;0.30;;
67372;SDS011;54257;54.496;18.412;2022-09-03T12:21:06;2.30;;;0.80;;
67372;SDS011;54257;54.496;18.412;2022-09-03T12:23:41;0.40;;;0.40;;
67372;SDS011;54257;54.496;18.412;2022-09-03T12:26:14;0.50;;;0.50;;
67372;SDS011;54257;54.496;18.412;2022-09-03T12:28:53;0.50;;;0.40;;
67372;SDS011;54257;54.496;18.412;2022-09-03T12:31:23;0.70;;;0.40;;
67372;SDS011;54257;54.496;18.412;2022-09-03T12:39:38;0.30;;;0.30;;
67372;SDS011;54257;54.496;18.412;2022-09-03T12:42:05;0.50;;;0.40;;
67372;SDS011;54257;54.496;18.412;2022-09-03T12:44:38;2.40;;;0.60;;
67372;SDS011;54257;54.496;18.412;2022-09-03T12:49:43;0.40;;;0.40;;
67372;SDS011;54257;54.496;18.412;2022-09-03T12:54:49;0.40;;;0.40;;
67372;SDS011;54257;54.496;18.412;2022-09-03T12:59:47;0.60;;;0.50;;
67372;SDS011;54257;54.496;18.412;2022-09-03T13:02:20;0.50;;;0.40;;
67372;SDS011;54257;54.496;18.412;2022-09-03T13:04:54;0.60;;;0.60;;
67372;SDS011;54257;54.496;18.412;2022-09-03T13:09:54;0.30;;;0.30;;
67372;SDS011;54257;54.496;18.412;2022-09-03T13:12:42;1.00;;;0.50;;
67372;SDS011;54257;54.496;18.412;2022-09-03T13:15:31;0.90;;;0.40;;
67372;SDS011;54257;54.496;18.412;2022-09-03T13:18:08;0.50;;;0.40;;
67372;SDS011;54257;54.496;18.412;2022-09-03T13:21:02;0.30;;;0.30;;
67372;SDS011;54257;54.496;18.412;2022-09-03T13:29:06;1.00;;;0.40;;
67372;SDS011;54257;54.496;18.412;2022-09-03T13:31:43;0.30;;;0.30;;
67372;SDS011;54257;54.496;18.412;2022-09-03T13:36:55;0.60;;;0.60;;
67372;SDS011;54257;54.496;18.412;2022-09-03T13:39:40;0.50;;;0.50;;
67372;SDS011;54257;54.496;18.412;2022-09-03T13:42:32;0.40;;;0.40;;
67372;SDS011;54257;54.496;18.412;2022-09-03T13:48:10;0.40;;;0.40;;
67372;SDS011;54257;54.496;18.412;2022-09-03T13:51:13;0.40;;;0.40;;
67372;SDS011;54257;54.496;18.412;2022-09-03T13:54:07;0.40;;;0.40;;
67372;SDS011;54257;54.496;18.412;2022-09-03T13:56:58;1.30;;;0.40;;
67372;SDS011;54257;54.496;18.412;2022-09-03T13:59:37;2.30;;;0.40;;
67372;SDS011;54257;54.496;18.412;2022-09-03T14:05:04;0.60;;;0.50;;
67372;SDS011;54257;54.496;18.412;2022-09-03T14:07:47;0.50;;;0.50;;
67372;SDS011;54257;54.496;18.412;2022-09-03T14:10:20;0.60;;;0.50;;
67372;SDS011;54257;54.496;18.412;2022-09-03T14:13:09;0.60;;;0.50;;
67372;SDS011;54257;54.496;18.412;2022-09-03T14:16:03;1.00;;;0.60;;
67372;SDS011;54257;54.496;18.412;2022-09-03T14:21:21;0.60;;;0.60;;
67372;SDS011;54257;54.496;18.412;2022-09-03T14:24:20;0.50;;;0.50;;
67372;SDS011;54257;54.496;18.412;2022-09-03T14:26:55;1.00;;;0.30;;
67372;SDS011;54257;54.496;18.412;2022-09-03T14:29:26;0.70;;;0.70;;
67372;SDS011;54257;54.496;18.412;2022-09-03T14:54:40;0.50;;;0.50;;
67372;SDS011;54257;54.496;18.412;2022-09-03T14:57:21;1.80;;;0.60;;
67372;SDS011;54257;54.496;18.412;2022-09-03T15:08:21;0.50;;;0.50;;
67372;SDS011;54257;54.496;18.412;2022-09-03T15:11:19;0.50;;;0.50;;
67372;SDS011;54257;54.496;18.412;2022-09-03T15:13:54;0.70;;;0.70;;
67372;SDS011;54257;54.496;18.412;2022-09-03T15:30:43;0.80;;;0.60;;
67372;SDS011;54257;54.496;18.412;2022-09-03T15:33:24;0.60;;;0.60;;
67372;SDS011;54257;54.496;18.412;2022-09-03T15:36:09;2.50;;;0.80;;
67372;SDS011;54257;54.496;18.412;2022-09-03T15:38:46;0.70;;;0.50;;
67372;SDS011;54257;54.496;18.412;2022-09-03T15:44:16;0.60;;;0.50;;
67372;SDS011;54257;54.496;18.412;2022-09-03T15:49:25;0.60;;;0.60;;
67372;SDS011;54257;54.496;18.412;2022-09-03T15:52:07;0.70;;;0.50;;
67372;SDS011;54257;54.496;18.412;2022-09-03T15:54:37;0.90;;;0.60;;
67372;SDS011;54257;54.496;18.412;2022-09-03T15:57:32;0.50;;;0.50;;
67372;SDS011;54257;54.496;18.412;2022-09-03T16:00:07;0.60;;;0.60;;
67372;SDS011;54257;54.496;18.412;2022-09-03T16:02:49;2.40;;;0.60;;
67372;SDS011;54257;54.496;18.412;2022-09-03T16:05:20;1.20;;;0.80;;
67372;SDS011;54257;54.496;18.412;2022-09-03T16:08:06;1.00;;;0.60;;
67372;SDS011;54257;54.496;18.412;2022-09-03T16:16:33;0.50;;;0.50;;
67372;SDS011;54257;54.496;18.412;2022-09-03T16:19:27;1.10;;;0.40;;
67372;SDS011;54257;54.496;18.412;2022-09-03T16:25:44;0.60;;;0.60;;
67372;SDS011;54257;54.496;18.412;2022-09-03T16:28:09;0.40;;;0.40;;
67372;SDS011;54257;54.496;18.412;2022-09-03T16:30:46;0.50;;;0.50;;
67372;SDS011;54257;54.496;18.412;2022-09-03T16:33:53;0.60;;;0.40;;
67372;SDS011;54257;54.496;18.412;2022-09-03T16:36:43;1.70;;;0.70;;
67372;SDS011;54257;54.496;18.412;2022-09-03T16:50:28;1.10;;;0.40;;
67372;SDS011;54257;54.496;18.412;2022-09-03T16:53:30;1.70;;;0.80;;
67372;SDS011;54257;54.496;18.412;2022-09-03T17:31:16;1.10;;;0.90;;
67372;SDS011;54257;54.496;18.412;2022-09-03T17:46:24;2.00;;;0.80;;
67372;SDS011;54257;54.496;18.412;2022-09-03T17:49:11;1.90;;;1.70;;
67372;SDS011;54257;54.496;18.412;2022-09-03T17:51:57;1.80;;;1.50;;
67372;SDS011;54257;54.496;18.412;2022-09-03T17:54:39;1.90;;;1.10;;
67372;SDS011;54257;54.496;18.412;2022-09-03T17:57:26;1.40;;;0.90;;
67372;SDS011;54257;54.496;18.412;2022-09-03T18:00:02;2.00;;;1.80;;
67372;SDS011;54257;54.496;18.412;2022-09-03T18:02:39;1.10;;;0.90;;
67372;SDS011;54257;54.496;18.412;2022-09-03T18:05:21;3.10;;;2.80;;
67372;SDS011;54257;54.496;18.412;2022-09-03T18:16:08;2.00;;;0.80;;
67372;SDS011;54257;54.496;18.412;2022-09-03T18:18:44;1.90;;;1.20;;
67372;SDS011;54257;54.496;18.412;2022-09-03T18:21:20;0.70;;;0.70;;
67372;SDS011;54257;54.496;18.412;2022-09-03T18:27:10;1.50;;;0.90;;
67372;SDS011;54257;54.496;18.412;2022-09-03T18:30:02;2.10;;;1.80;;
67372;SDS011;54257;54.496;18.412;2022-09-03T18:33:00;6.40;;;3.80;;
67372;SDS011;54257;54.496;18.412;2022-09-03T18:35:46;11.70;;;7.60;;
67372;SDS011;54257;54.496;18.412;2022-09-03T18:38:35;18.00;;;8.90;;
67372;SDS011;54257;54.496;18.412;2022-09-03T18:51:06;17.70;;;7.30;;
67372;SDS011;54257;54.496;18.412;2022-09-03T18:57:11;14.10;;;7.00;;
67372;SDS011;54257;54.496;18.412;2022-09-03T19:00:04;11.60;;;6.10;;
67372;SDS011;54257;54.496;18.412;2022-09-03T19:03:01;11.00;;;5.10;;
67372;SDS011;54257;54.496;18.412;2022-09-03T19:06:11;11.60;;;6.20;;
67372;SDS011;54257;54.496;18.412;2022-09-03T19:15:05;10.00;;;4.90;;
67372;SDS011;54257;54.496;18.412;2022-09-03T19:18:07;15.00;;;7.90;;
67372;SDS011;54257;54.496;18.412;2022-09-03T19:24:25;9.10;;;5.30;;
67372;SDS011;54257;54.496;18.412;2022-09-03T19:27:22;8.30;;;4.80;;
67372;SDS011;54257;54.496;18.412;2022-09-03T19:30:20;8.70;;;4.80;;
67372;SDS011;54257;54.496;18.412;2022-09-03T19:33:34;10.80;;;5.60;;
67372;SDS011;54257;54.496;18.412;2022-09-03T19:39:24;21.80;;;7.90;;
67372;SDS011;54257;54.496;18.412;2022-09-03T19:51:17;22.40;;;8.90;;
67372;SDS011;54257;54.496;18.412;2022-09-03T19:54:10;14.10;;;7.40;;
67372;SDS011;54257;54.496;18.412;2022-09-03T19:56:56;16.70;;;8.30;;
67372;SDS011;54257;54.496;18.412;2022-09-03T19:59:43;11.40;;;4.50;;
67372;SDS011;54257;54.496;18.412;2022-09-03T20:02:33;9.60;;;5.10;;
67372;SDS011;54257;54.496;18.412;2022-09-03T20:05:20;13.30;;;5.80;;
67372;SDS011;54257;54.496;18.412;2022-09-03T20:08:06;11.70;;;5.50;;
67372;SDS011;54257;54.496;18.412;2022-09-03T20:10:55;9.20;;;5.40;;
67372;SDS011;54257;54.496;18.412;2022-09-03T20:13:24;7.80;;;4.00;;
67372;SDS011;54257;54.496;18.412;2022-09-03T20:21:58;9.50;;;4.60;;
67372;SDS011;54257;54.496;18.412;2022-09-03T20:27:40;9.10;;;3.90;;
67372;SDS011;54257;54.496;18.412;2022-09-03T20:30:31;8.50;;;4.00;;
67372;SDS011;54257;54.496;18.412;2022-09-03T20:33:09;4.40;;;2.70;;
67372;SDS011;54257;54.496;18.412;2022-09-03T20:36:00;3.50;;;1.90;;
67372;SDS011;54257;54.496;18.412;2022-09-03T20:39:27;5.00;;;2.40;;
67372;SDS011;54257;54.496;18.412;2022-09-03T20:42:32;5.60;;;2.80;;
67372;SDS011;54257;54.496;18.412;2022-09-03T20:45:24;3.40;;;2.40;;
67372;SDS011;54257;54.496;18.412;2022-09-03T20:48:17;9.70;;;7.40;;
67372;SDS011;54257;54.496;18.412;2022-09-03T20:51:13;4.90;;;3.60;;
67372;SDS011;54257;54.496;18.412;2022-09-03T20:54:03;4.50;;;2.60;;
67372;SDS011;54257;54.496;18.412;2022-09-03T20:56:38;10.90;;;6.10;;
67372;SDS011;54257;54.496;18.412;2022-09-03T21:12:21;2.90;;;2.60;;
67372;SDS011;54257;54.496;18.412;2022-09-03T21:15:15;4.10;;;3.10;;
67372;SDS011;54257;54.496;18.412;2022-09-03T21:23:18;3.20;;;2.40;;
67372;SDS011;54257;54.496;18.412;2022-09-03T21:31:29;2.90;;;2.20;;
67372;SDS011;54257;54.496;18.412;2022-09-03T21:37:10;3.10;;;2.60;;
67372;SDS011;54257;54.496;18.412;2022-09-03T21:42:14;4.60;;;3.80;;
67372;SDS011;54257;54.496;18.412;2022-09-03T21:44:54;34.60;;;25.50;;